Estación de Longaví Norte
Ultimos registro cada 15 minutos 73
| N° | Estación | Fecha / Hora | Temperatura | Humedad | Lluvia | Velocidad | Dirección | Radiación | Presion |
| 73 | Longaví Norte | 05-09-2026 18:00 | 17,8 | 56,4 | 0 | 0,3 | 65 | 30,6 | 996,7 |
| 72 | Longaví Norte | 05-09-2026 17:45 | 19,1 | 51,2 | 0 | 0,3 | 58 | 43,1 | 996,6 |
| 71 | Longaví Norte | 05-09-2026 17:30 | 20,9 | 44,6 | 0 | 0,3 | 38 | 149,4 | 996,6 |
| 70 | Longaví Norte | 05-09-2026 17:15 | 21,1 | 44,4 | 0 | 0,7 | 29 | 208,1 | 996,6 |
| 69 | Longaví Norte | 05-09-2026 17:00 | 21,7 | 44,1 | 0 | 0,7 | 38 | 254,4 | 996,7 |
| 68 | Longaví Norte | 05-09-2026 16:45 | 21,6 | 44,2 | 0 | 0,7 | 38 | 298,1 | 996,7 |
| 67 | Longaví Norte | 05-09-2026 16:30 | 21,7 | 47,2 | 0 | 0,7 | 20 | 345,6 | 996,7 |
| 66 | Longaví Norte | 05-09-2026 16:15 | 22 | 44,8 | 0 | 0,7 | 34 | 389,4 | 996,7 |
| 65 | Longaví Norte | 05-09-2026 16:00 | 22,4 | 46,8 | 0 | 0,7 | 21 | 433,1 | 996,7 |
| 64 | Longaví Norte | 05-09-2026 15:45 | 21,4 | 49,7 | 0 | 0,7 | 11 | 466,9 | 996,8 |
| 63 | Longaví Norte | 05-09-2026 15:30 | 21,8 | 50,3 | 0 | 0,7 | 354 | 508,1 | 996,9 |
| 62 | Longaví Norte | 05-09-2026 15:15 | 20,6 | 54,3 | 0 | 0,7 | 354 | 548,1 | 997 |
| 61 | Longaví Norte | 05-09-2026 15:00 | 19,9 | 56,9 | 0 | 0,7 | 35 | 574,4 | 997,2 |
| 60 | Longaví Norte | 05-09-2026 14:45 | 19 | 61,9 | 0 | 0,3 | 110 | 606,9 | 997,4 |
| 59 | Longaví Norte | 05-09-2026 14:30 | 19,7 | 61,1 | 0 | 0,7 | 265 | 633,1 | 997,7 |
| 58 | Longaví Norte | 05-09-2026 14:15 | 17,1 | 67,4 | 0 | 0,7 | 225 | 655,6 | 998 |
| 57 | Longaví Norte | 05-09-2026 14:00 | 16,7 | 67,8 | 0 | 0,7 | 216 | 676,9 | 998,3 |
| 56 | Longaví Norte | 05-09-2026 13:45 | 15,4 | 74,2 | 0 | 1 | 194 | 694,4 | 998,6 |
| 55 | Longaví Norte | 05-09-2026 13:30 | 15,5 | 76,1 | 0 | 0,7 | 258 | 708,1 | 999,1 |
| 54 | Longaví Norte | 05-09-2026 13:15 | 14 | 77,6 | 0 | 0,7 | 208 | 715,6 | 999,4 |
| 53 | Longaví Norte | 05-09-2026 13:00 | 12,1 | 82,2 | 0 | 1 | 184 | 726,9 | 999,7 |
| 52 | Longaví Norte | 05-09-2026 12:45 | 12 | 82 | 0 | 0,7 | 181 | 726,9 | 1000,1 |
| 51 | Longaví Norte | 05-09-2026 12:30 | 10,6 | 84,1 | 0 | 0,7 | 140 | 723,1 | 1000,3 |
| 50 | Longaví Norte | 05-09-2026 12:15 | 10,5 | 86,6 | 0 | 0,7 | 147 | 716,9 | 1000,6 |
| 49 | Longaví Norte | 05-09-2026 12:00 | 9,2 | 86,9 | 0 | 0,7 | 184 | 514,4 | 1000,9 |
| 48 | Longaví Norte | 05-09-2026 11:45 | 9,2 | 90,7 | 0 | 0,7 | 270 | 279,4 | 1001,2 |
| 47 | Longaví Norte | 05-09-2026 11:30 | 7,1 | 98 | 0 | 0,7 | 202 | 510,6 | 1001,3 |
| 46 | Longaví Norte | 05-09-2026 11:15 | 5,7 | 99,9 | 0 | 0,7 | 218 | 288,1 | 1001,5 |
| 45 | Longaví Norte | 05-09-2026 11:00 | 4,8 | 100 | 0 | 0,7 | 205 | 225,6 | 1001,6 |
| 44 | Longaví Norte | 05-09-2026 10:45 | 4,5 | 100 | 0 | 1 | 187 | 210,6 | 1001,6 |
| 43 | Longaví Norte | 05-09-2026 10:30 | 4,5 | 100 | 0 | 0,7 | 215 | 180,6 | 1001,7 |
| 42 | Longaví Norte | 05-09-2026 10:15 | 4,3 | 100 | 0 | 0,7 | 208 | 156,9 | 1001,9 |
| 41 | Longaví Norte | 05-09-2026 10:00 | 3,9 | 100 | 0 | 0,7 | 208 | 145,6 | 1001,9 |
| 40 | Longaví Norte | 05-09-2026 09:45 | 3,7 | 100 | 0 | 0,7 | 230 | 139,4 | 1002 |
| 39 | Longaví Norte | 05-09-2026 09:30 | 3,8 | 100 | 0 | 0,7 | 227 | 109,4 | 1002,1 |
| 38 | Longaví Norte | 05-09-2026 09:15 | 3,6 | 100 | 0 | 0,7 | 240 | 101,9 | 1002,1 |
| 37 | Longaví Norte | 05-09-2026 09:00 | 3,4 | 100 | 0 | 0,3 | 225 | 89,4 | 1002,1 |
| 36 | Longaví Norte | 05-09-2026 08:45 | 3,4 | 100 | 0 | 0,3 | 153 | 81,9 | 1002,3 |
| 35 | Longaví Norte | 05-09-2026 08:30 | 3,4 | 100 | 0 | 0,3 | 110 | 63,1 | 1002,3 |
| 34 | Longaví Norte | 05-09-2026 08:15 | 3,2 | 100 | 0 | 0,3 | 146 | 44,4 | 1002,3 |
| 33 | Longaví Norte | 05-09-2026 08:00 | 3 | 100 | 0 | 0 | 129 | 33,1 | 1002,3 |
| 32 | Longaví Norte | 05-09-2026 07:45 | 3 | 100 | 0 | 0 | 147 | 21,9 | 1002,3 |
| 31 | Longaví Norte | 05-09-2026 07:30 | 2,8 | 100 | 0 | 0 | 164 | 13,1 | 1002,2 |
| 30 | Longaví Norte | 05-09-2026 07:15 | 2,8 | 100 | 0 | 0,3 | 171 | 3,1 | 1002,2 |
| 29 | Longaví Norte | 05-09-2026 07:00 | 2,6 | 100 | 0 | 0,7 | 177 | 0,6 | 1002,2 |
| 28 | Longaví Norte | 05-09-2026 06:45 | 2,7 | 99,9 | 0 | 0,7 | 181 | 0,6 | 1002,3 |
| 27 | Longaví Norte | 05-09-2026 06:30 | 2,7 | 100 | 0 | 0,7 | 206 | 0,6 | 1002,2 |
| 26 | Longaví Norte | 05-09-2026 06:15 | 2,1 | 99,9 | 0 | 0 | 211 | 0,6 | 1002,2 |
| 25 | Longaví Norte | 05-09-2026 06:00 | 1,3 | 99,9 | 0 | 0 | 209 | 0,6 | 1002,1 |
| 24 | Longaví Norte | 05-09-2026 05:45 | 0,8 | 100 | 0 | 0 | 209 | 0,6 | 1002,2 |
| 23 | Longaví Norte | 05-09-2026 05:30 | 0,2 | 100 | 0 | 0 | 209 | 0,6 | 1002,2 |
| 22 | Longaví Norte | 05-09-2026 05:15 | -0,9 | 99,9 | 0 | 0 | 209 | 0,6 | 1002,2 |
| 21 | Longaví Norte | 05-09-2026 05:00 | -1,3 | 99,7 | 0 | 0 | 209 | 0,6 | 1002,2 |
| 20 | Longaví Norte | 05-09-2026 04:45 | -1,1 | 99,5 | 0 | 0 | 209 | 0,6 | 1002,2 |
| 19 | Longaví Norte | 05-09-2026 04:30 | -1 | 99,5 | 0 | 0 | 209 | 0,6 | 1002,3 |
| 18 | Longaví Norte | 05-09-2026 04:15 | -1 | 99,3 | 0 | 0 | 209 | 0,6 | 1002,3 |
| 17 | Longaví Norte | 05-09-2026 04:00 | -0,9 | 99,3 | 0 | 0 | 209 | 0,6 | 1002,4 |
| 16 | Longaví Norte | 05-09-2026 03:45 | -0,9 | 98,8 | 0 | 0 | 209 | 0,6 | 1002,6 |
| 15 | Longaví Norte | 05-09-2026 03:30 | -0,7 | 99 | 0 | 0 | 209 | 0,6 | 1002,7 |
| 14 | Longaví Norte | 05-09-2026 03:15 | -0,5 | 98,9 | 0 | 0 | 209 | 0,6 | 1003 |
| 13 | Longaví Norte | 05-09-2026 03:00 | -0,3 | 99 | 0 | 0 | 209 | 0,6 | 1003,3 |
| 12 | Longaví Norte | 05-09-2026 02:45 | 0 | 98,4 | 0 | 0 | 209 | 0,6 | 1003,5 |
| 11 | Longaví Norte | 05-09-2026 02:30 | 0,3 | 98,5 | 0 | 0 | 209 | 0,6 | 1003,6 |
| 10 | Longaví Norte | 05-09-2026 02:15 | 0,4 | 98,3 | 0 | 0 | 209 | 0,6 | 1003,8 |
| 9 | Longaví Norte | 05-09-2026 02:00 | 0,5 | 97,9 | 0 | 0 | 209 | 0,6 | 1004 |
| 8 | Longaví Norte | 05-09-2026 01:45 | 0,7 | 97,8 | 0 | 0 | 209 | 0,6 | 1004,1 |
| 7 | Longaví Norte | 05-09-2026 01:30 | 0,4 | 97,5 | 0 | 0 | 209 | 0,6 | 1004,2 |
| 6 | Longaví Norte | 05-09-2026 01:15 | 0,7 | 96,9 | 0 | 0 | 209 | 0,6 | 1004,4 |
| 5 | Longaví Norte | 05-09-2026 01:00 | 1,1 | 96,6 | 0 | 0 | 209 | 0,6 | 1004,5 |
| 4 | Longaví Norte | 05-09-2026 00:45 | 1,6 | 95,8 | 0 | 0 | 209 | 0,6 | 1004,5 |
| 3 | Longaví Norte | 05-09-2026 00:30 | 2,5 | 95,9 | 0 | 0 | 209 | 0,6 | 1004,5 |
| 2 | Longaví Norte | 05-09-2026 00:15 | 2,8 | 94,6 | 0 | 0 | 209 | 0,6 | 1004,7 |
| 1 | Longaví Norte | 05-09-2026 00:00 | 3,1 | 93,5 | 0 | 0 | 209 | 0,6 | 1004,9 |